sensor_id;sensor_type;location;lat;lon;timestamp;P1;durP1;ratioP1;P2;durP2;ratioP2
42194;SDS011;27863;49.440;11.102;2023-08-06T00:00:53;3.60;;;3.08;;
42194;SDS011;27863;49.440;11.102;2023-08-06T00:03:54;2.90;;;2.70;;
42194;SDS011;27863;49.440;11.102;2023-08-06T00:06:54;2.92;;;2.72;;
42194;SDS011;27863;49.440;11.102;2023-08-06T00:09:55;3.28;;;2.95;;
42194;SDS011;27863;49.440;11.102;2023-08-06T00:12:55;2.60;;;2.40;;
42194;SDS011;27863;49.440;11.102;2023-08-06T00:16:03;2.63;;;2.42;;
42194;SDS011;27863;49.440;11.102;2023-08-06T00:19:08;3.50;;;3.30;;
42194;SDS011;27863;49.440;11.102;2023-08-06T00:22:09;2.63;;;2.42;;
42194;SDS011;27863;49.440;11.102;2023-08-06T00:25:09;2.63;;;2.42;;
42194;SDS011;27863;49.440;11.102;2023-08-06T00:28:10;3.08;;;2.70;;
42194;SDS011;27863;49.440;11.102;2023-08-06T00:31:11;2.92;;;2.60;;
42194;SDS011;27863;49.440;11.102;2023-08-06T00:34:12;2.50;;;2.30;;
42194;SDS011;27863;49.440;11.102;2023-08-06T00:37:15;2.83;;;2.60;;
42194;SDS011;27863;49.440;11.102;2023-08-06T00:40:18;3.00;;;2.80;;
42194;SDS011;27863;49.440;11.102;2023-08-06T00:43:21;3.58;;;3.22;;
42194;SDS011;27863;49.440;11.102;2023-08-06T00:46:21;3.33;;;2.65;;
42194;SDS011;27863;49.440;11.102;2023-08-06T00:49:22;3.60;;;3.30;;
42194;SDS011;27863;49.440;11.102;2023-08-06T00:52:23;3.53;;;3.13;;
42194;SDS011;27863;49.440;11.102;2023-08-06T00:55:24;3.47;;;3.17;;
42194;SDS011;27863;49.440;11.102;2023-08-06T00:58:24;3.83;;;3.53;;
42194;SDS011;27863;49.440;11.102;2023-08-06T01:01:25;3.42;;;3.22;;
42194;SDS011;27863;49.440;11.102;2023-08-06T01:04:25;3.42;;;3.17;;
42194;SDS011;27863;49.440;11.102;2023-08-06T01:14:06;3.85;;;3.55;;
42194;SDS011;27863;49.440;11.102;2023-08-06T01:17:10;3.50;;;3.20;;
42194;SDS011;27863;49.440;11.102;2023-08-06T01:20:12;3.70;;;3.40;;
42194;SDS011;27863;49.440;11.102;2023-08-06T01:23:13;3.35;;;3.00;;
42194;SDS011;27863;49.440;11.102;2023-08-06T01:30:11;3.03;;;2.83;;
42194;SDS011;27863;49.440;11.102;2023-08-06T01:33:14;3.22;;;2.92;;
42194;SDS011;27863;49.440;11.102;2023-08-06T01:36:16;3.20;;;3.00;;
42194;SDS011;27863;49.440;11.102;2023-08-06T01:39:18;2.95;;;2.75;;
42194;SDS011;27863;49.440;11.102;2023-08-06T01:42:21;3.35;;;3.15;;
42194;SDS011;27863;49.440;11.102;2023-08-06T01:45:22;3.47;;;3.17;;
42194;SDS011;27863;49.440;11.102;2023-08-06T01:48:23;2.92;;;2.72;;
42194;SDS011;27863;49.440;11.102;2023-08-06T01:51:24;2.97;;;2.67;;
42194;SDS011;27863;49.440;11.102;2023-08-06T01:54:24;3.63;;;3.28;;
42194;SDS011;27863;49.440;11.102;2023-08-06T01:57:25;3.60;;;3.30;;
42194;SDS011;27863;49.440;11.102;2023-08-06T02:00:26;4.50;;;4.10;;
42194;SDS011;27863;49.440;11.102;2023-08-06T02:03:28;5.50;;;3.42;;
42194;SDS011;27863;49.440;11.102;2023-08-06T02:06:28;4.05;;;3.67;;
42194;SDS011;27863;49.440;11.102;2023-08-06T02:09:29;3.20;;;3.00;;
42194;SDS011;27863;49.440;11.102;2023-08-06T02:12:30;3.50;;;3.30;;
42194;SDS011;27863;49.440;11.102;2023-08-06T02:15:31;3.40;;;3.10;;
42194;SDS011;27863;49.440;11.102;2023-08-06T02:18:32;2.90;;;2.70;;
42194;SDS011;27863;49.440;11.102;2023-08-06T02:21:33;2.17;;;2.08;;
42194;SDS011;27863;49.440;11.102;2023-08-06T02:24:34;2.50;;;2.30;;
42194;SDS011;27863;49.440;11.102;2023-08-06T02:27:34;2.60;;;2.40;;
42194;SDS011;27863;49.440;11.102;2023-08-06T02:30:35;2.13;;;2.00;;
42194;SDS011;27863;49.440;11.102;2023-08-06T02:33:36;3.30;;;2.60;;
42194;SDS011;27863;49.440;11.102;2023-08-06T02:36:36;3.30;;;2.75;;
42194;SDS011;27863;49.440;11.102;2023-08-06T02:39:37;2.17;;;2.05;;
42194;SDS011;27863;49.440;11.102;2023-08-06T02:42:41;2.13;;;2.03;;
42194;SDS011;27863;49.440;11.102;2023-08-06T02:45:41;2.25;;;2.08;;
42194;SDS011;27863;49.440;11.102;2023-08-06T02:48:42;2.05;;;1.88;;
42194;SDS011;27863;49.440;11.102;2023-08-06T02:51:44;2.08;;;1.83;;
42194;SDS011;27863;49.440;11.102;2023-08-06T02:54:45;1.88;;;1.77;;
42194;SDS011;27863;49.440;11.102;2023-08-06T02:57:49;2.42;;;2.22;;
42194;SDS011;27863;49.440;11.102;2023-08-06T03:01:00;1.90;;;1.80;;
42194;SDS011;27863;49.440;11.102;2023-08-06T03:04:01;2.08;;;1.98;;
42194;SDS011;27863;49.440;11.102;2023-08-06T03:07:08;3.47;;;2.35;;
42194;SDS011;27863;49.440;11.102;2023-08-06T03:10:17;2.22;;;2.03;;
42194;SDS011;27863;49.440;11.102;2023-08-06T03:13:18;3.75;;;2.17;;
42194;SDS011;27863;49.440;11.102;2023-08-06T03:16:19;3.38;;;2.22;;
42194;SDS011;27863;49.440;11.102;2023-08-06T03:19:19;2.70;;;2.50;;
42194;SDS011;27863;49.440;11.102;2023-08-06T03:22:20;2.20;;;2.00;;
42194;SDS011;27863;49.440;11.102;2023-08-06T03:25:21;2.28;;;2.10;;
42194;SDS011;27863;49.440;11.102;2023-08-06T03:28:23;2.40;;;2.20;;
42194;SDS011;27863;49.440;11.102;2023-08-06T03:31:24;8.27;;;2.10;;
42194;SDS011;27863;49.440;11.102;2023-08-06T03:34:24;2.03;;;1.83;;
42194;SDS011;27863;49.440;11.102;2023-08-06T03:37:25;2.40;;;2.20;;
42194;SDS011;27863;49.440;11.102;2023-08-06T03:40:26;2.22;;;2.03;;
42194;SDS011;27863;49.440;11.102;2023-08-06T03:43:27;2.33;;;2.13;;
42194;SDS011;27863;49.440;11.102;2023-08-06T03:46:28;1.70;;;1.60;;
42194;SDS011;27863;49.440;11.102;2023-08-06T03:49:29;1.90;;;1.80;;
42194;SDS011;27863;49.440;11.102;2023-08-06T03:52:31;5.10;;;1.83;;
42194;SDS011;27863;49.440;11.102;2023-08-06T03:55:31;2.60;;;2.40;;
42194;SDS011;27863;49.440;11.102;2023-08-06T03:58:32;3.22;;;2.22;;
42194;SDS011;27863;49.440;11.102;2023-08-06T04:01:33;2.25;;;2.03;;
42194;SDS011;27863;49.440;11.102;2023-08-06T04:04:36;2.38;;;1.65;;
42194;SDS011;27863;49.440;11.102;2023-08-06T04:07:37;4.45;;;2.40;;
42194;SDS011;27863;49.440;11.102;2023-08-06T04:10:38;2.30;;;2.10;;
42194;SDS011;27863;49.440;11.102;2023-08-06T04:13:41;2.78;;;1.70;;
42194;SDS011;27863;49.440;11.102;2023-08-06T04:16:42;2.13;;;1.92;;
42194;SDS011;27863;49.440;11.102;2023-08-06T04:19:43;5.00;;;2.40;;
42194;SDS011;27863;49.440;11.102;2023-08-06T04:22:44;3.13;;;2.67;;
42194;SDS011;27863;49.440;11.102;2023-08-06T04:25:44;2.13;;;1.92;;
42194;SDS011;27863;49.440;11.102;2023-08-06T04:28:44;2.97;;;2.07;;
42194;SDS011;27863;49.440;11.102;2023-08-06T04:31:45;2.00;;;1.80;;
42194;SDS011;27863;49.440;11.102;2023-08-06T04:34:46;3.05;;;2.30;;
42194;SDS011;27863;49.440;11.102;2023-08-06T04:37:48;2.17;;;1.98;;
42194;SDS011;27863;49.440;11.102;2023-08-06T04:40:49;2.30;;;2.10;;
42194;SDS011;27863;49.440;11.102;2023-08-06T04:43:50;2.53;;;2.33;;
42194;SDS011;27863;49.440;11.102;2023-08-06T04:46:51;2.63;;;2.42;;
42194;SDS011;27863;49.440;11.102;2023-08-06T04:49:51;2.65;;;2.45;;
42194;SDS011;27863;49.440;11.102;2023-08-06T04:52:52;2.75;;;1.95;;
42194;SDS011;27863;49.440;11.102;2023-08-06T04:55:52;2.75;;;2.50;;
42194;SDS011;27863;49.440;11.102;2023-08-06T04:58:53;3.42;;;2.28;;
42194;SDS011;27863;49.440;11.102;2023-08-06T05:01:53;2.28;;;2.10;;
42194;SDS011;27863;49.440;11.102;2023-08-06T05:04:54;2.55;;;2.35;;
42194;SDS011;27863;49.440;11.102;2023-08-06T05:07:55;2.33;;;2.05;;
42194;SDS011;27863;49.440;11.102;2023-08-06T05:10:58;1.95;;;1.85;;
42194;SDS011;27863;49.440;11.102;2023-08-06T05:13:58;2.15;;;1.60;;
42194;SDS011;27863;49.440;11.102;2023-08-06T05:16:59;1.63;;;1.52;;
42194;SDS011;27863;49.440;11.102;2023-08-06T05:19:59;1.52;;;1.42;;
42194;SDS011;27863;49.440;11.102;2023-08-06T05:23:00;1.83;;;1.73;;
42194;SDS011;27863;49.440;11.102;2023-08-06T05:26:00;1.60;;;1.50;;
42194;SDS011;27863;49.440;11.102;2023-08-06T05:29:01;3.80;;;1.52;;
42194;SDS011;27863;49.440;11.102;2023-08-06T05:32:01;2.33;;;1.45;;
42194;SDS011;27863;49.440;11.102;2023-08-06T05:35:02;2.65;;;1.88;;
42194;SDS011;27863;49.440;11.102;2023-08-06T05:38:03;1.90;;;1.63;;
42194;SDS011;27863;49.440;11.102;2023-08-06T05:41:03;1.67;;;1.58;;
42194;SDS011;27863;49.440;11.102;2023-08-06T05:44:04;1.90;;;1.80;;
42194;SDS011;27863;49.440;11.102;2023-08-06T05:47:04;2.25;;;1.63;;
42194;SDS011;27863;49.440;11.102;2023-08-06T05:50:05;1.60;;;1.50;;
42194;SDS011;27863;49.440;11.102;2023-08-06T05:53:06;2.40;;;2.00;;
42194;SDS011;27863;49.440;11.102;2023-08-06T05:56:07;2.28;;;1.95;;
42194;SDS011;27863;49.440;11.102;2023-08-06T05:59:07;9.50;;;2.10;;
42194;SDS011;27863;49.440;11.102;2023-08-06T06:02:08;2.13;;;1.98;;
42194;SDS011;27863;49.440;11.102;2023-08-06T06:05:08;2.28;;;2.17;;
42194;SDS011;27863;49.440;11.102;2023-08-06T06:08:09;2.42;;;2.10;;
42194;SDS011;27863;49.440;11.102;2023-08-06T06:11:10;1.63;;;1.30;;
42194;SDS011;27863;49.440;11.102;2023-08-06T06:14:10;1.20;;;1.10;;
42194;SDS011;27863;49.440;11.102;2023-08-06T06:17:10;1.85;;;1.75;;
42194;SDS011;27863;49.440;11.102;2023-08-06T06:20:11;1.50;;;1.40;;
42194;SDS011;27863;49.440;11.102;2023-08-06T06:23:11;1.75;;;1.65;;
42194;SDS011;27863;49.440;11.102;2023-08-06T06:26:12;2.55;;;1.38;;
42194;SDS011;27863;49.440;11.102;2023-08-06T06:29:13;1.67;;;1.38;;
42194;SDS011;27863;49.440;11.102;2023-08-06T06:32:13;1.48;;;1.38;;
42194;SDS011;27863;49.440;11.102;2023-08-06T06:35:14;1.88;;;1.77;;
42194;SDS011;27863;49.440;11.102;2023-08-06T06:38:14;1.58;;;1.48;;
42194;SDS011;27863;49.440;11.102;2023-08-06T06:41:15;3.42;;;1.80;;
42194;SDS011;27863;49.440;11.102;2023-08-06T06:44:15;5.70;;;2.22;;
42194;SDS011;27863;49.440;11.102;2023-08-06T06:47:16;1.65;;;1.55;;
42194;SDS011;27863;49.440;11.102;2023-08-06T06:50:16;2.10;;;1.90;;
42194;SDS011;27863;49.440;11.102;2023-08-06T06:53:17;3.00;;;2.20;;
42194;SDS011;27863;49.440;11.102;2023-08-06T06:56:17;1.73;;;1.63;;
42194;SDS011;27863;49.440;11.102;2023-08-06T06:59:18;1.90;;;1.70;;
42194;SDS011;27863;49.440;11.102;2023-08-06T07:02:18;2.13;;;1.90;;
42194;SDS011;27863;49.440;11.102;2023-08-06T07:05:19;2.10;;;1.85;;
42194;SDS011;27863;49.440;11.102;2023-08-06T07:08:19;2.47;;;2.28;;
42194;SDS011;27863;49.440;11.102;2023-08-06T07:11:20;2.00;;;1.90;;
42194;SDS011;27863;49.440;11.102;2023-08-06T07:14:21;1.73;;;1.63;;
42194;SDS011;27863;49.440;11.102;2023-08-06T07:17:23;4.50;;;1.77;;
42194;SDS011;27863;49.440;11.102;2023-08-06T07:20:23;2.38;;;1.90;;
42194;SDS011;27863;49.440;11.102;2023-08-06T07:23:25;1.70;;;1.45;;
42194;SDS011;27863;49.440;11.102;2023-08-06T07:26:25;3.33;;;1.55;;
42194;SDS011;27863;49.440;11.102;2023-08-06T07:29:26;2.17;;;1.98;;
42194;SDS011;27863;49.440;11.102;2023-08-06T07:32:27;1.83;;;1.67;;
42194;SDS011;27863;49.440;11.102;2023-08-06T07:35:30;3.00;;;2.00;;
42194;SDS011;27863;49.440;11.102;2023-08-06T07:38:31;2.00;;;1.90;;
42194;SDS011;27863;49.440;11.102;2023-08-06T07:41:31;1.73;;;1.63;;
42194;SDS011;27863;49.440;11.102;2023-08-06T07:44:32;1.98;;;1.80;;
42194;SDS011;27863;49.440;11.102;2023-08-06T07:47:32;5.57;;;2.38;;
42194;SDS011;27863;49.440;11.102;2023-08-06T07:50:33;1.75;;;1.60;;
42194;SDS011;27863;49.440;11.102;2023-08-06T07:53:33;1.70;;;1.60;;
42194;SDS011;27863;49.440;11.102;2023-08-06T07:56:34;1.50;;;1.10;;
42194;SDS011;27863;49.440;11.102;2023-08-06T07:59:36;1.20;;;1.10;;
42194;SDS011;27863;49.440;11.102;2023-08-06T08:02:37;2.75;;;1.20;;
42194;SDS011;27863;49.440;11.102;2023-08-06T08:05:38;2.25;;;0.95;;
42194;SDS011;27863;49.440;11.102;2023-08-06T08:08:38;1.08;;;0.98;;
42194;SDS011;27863;49.440;11.102;2023-08-06T08:11:39;1.63;;;1.35;;
42194;SDS011;27863;49.440;11.102;2023-08-06T08:14:43;1.70;;;1.10;;
42194;SDS011;27863;49.440;11.102;2023-08-06T08:17:45;1.27;;;1.10;;
42194;SDS011;27863;49.440;11.102;2023-08-06T08:20:47;0.85;;;0.85;;
42194;SDS011;27863;49.440;11.102;2023-08-06T08:23:48;1.10;;;1.02;;
42194;SDS011;27863;49.440;11.102;2023-08-06T08:26:50;0.70;;;0.70;;
42194;SDS011;27863;49.440;11.102;2023-08-06T08:29:51;0.57;;;0.43;;
42194;SDS011;27863;49.440;11.102;2023-08-06T08:32:52;0.68;;;0.68;;
42194;SDS011;27863;49.440;11.102;2023-08-06T08:35:53;1.02;;;0.77;;
42194;SDS011;27863;49.440;11.102;2023-08-06T08:38:53;1.27;;;0.77;;
42194;SDS011;27863;49.440;11.102;2023-08-06T08:41:54;0.60;;;0.57;;
42194;SDS011;27863;49.440;11.102;2023-08-06T08:44:54;1.38;;;0.50;;
42194;SDS011;27863;49.440;11.102;2023-08-06T08:47:56;0.30;;;0.30;;
42194;SDS011;27863;49.440;11.102;2023-08-06T08:50:57;1.45;;;0.30;;
42194;SDS011;27863;49.440;11.102;2023-08-06T08:53:57;0.20;;;0.20;;
42194;SDS011;27863;49.440;11.102;2023-08-06T08:56:58;0.45;;;0.22;;
42194;SDS011;27863;49.440;11.102;2023-08-06T09:00:00;0.20;;;0.20;;
42194;SDS011;27863;49.440;11.102;2023-08-06T09:03:00;0.80;;;0.30;;
42194;SDS011;27863;49.440;11.102;2023-08-06T09:06:02;0.20;;;0.20;;
42194;SDS011;27863;49.440;11.102;2023-08-06T09:09:08;0.20;;;0.20;;
42194;SDS011;27863;49.440;11.102;2023-08-06T09:12:16;0.63;;;0.20;;
42194;SDS011;27863;49.440;11.102;2023-08-06T09:15:17;0.17;;;0.15;;
42194;SDS011;27863;49.440;11.102;2023-08-06T09:18:24;0.28;;;0.22;;
42194;SDS011;27863;49.440;11.102;2023-08-06T09:21:27;0.47;;;0.28;;
42194;SDS011;27863;49.440;11.102;2023-08-06T09:24:28;0.30;;;0.17;;
42194;SDS011;27863;49.440;11.102;2023-08-06T09:27:29;0.13;;;0.13;;
42194;SDS011;27863;49.440;11.102;2023-08-06T09:30:35;0.20;;;0.20;;
42194;SDS011;27863;49.440;11.102;2023-08-06T09:33:36;0.45;;;0.10;;
42194;SDS011;27863;49.440;11.102;2023-08-06T09:36:56;0.32;;;0.32;;
42194;SDS011;27863;49.440;11.102;2023-08-06T09:39:56;0.35;;;0.35;;
42194;SDS011;27863;49.440;11.102;2023-08-06T09:42:57;0.20;;;0.20;;
42194;SDS011;27863;49.440;11.102;2023-08-06T09:45:58;0.20;;;0.13;;
42194;SDS011;27863;49.440;11.102;2023-08-06T09:48:59;0.20;;;0.20;;
42194;SDS011;27863;49.440;11.102;2023-08-06T09:52:00;0.22;;;0.22;;
42194;SDS011;27863;49.440;11.102;2023-08-06T09:55:01;0.40;;;0.40;;
42194;SDS011;27863;49.440;11.102;2023-08-06T09:58:02;0.32;;;0.22;;
42194;SDS011;27863;49.440;11.102;2023-08-06T10:01:03;0.43;;;0.30;;
42194;SDS011;27863;49.440;11.102;2023-08-06T10:04:05;0.50;;;0.32;;
42194;SDS011;27863;49.440;11.102;2023-08-06T10:07:13;1.40;;;0.20;;
42194;SDS011;27863;49.440;11.102;2023-08-06T10:10:14;0.55;;;0.30;;
42194;SDS011;27863;49.440;11.102;2023-08-06T10:13:14;0.63;;;0.40;;
42194;SDS011;27863;49.440;11.102;2023-08-06T10:16:16;1.38;;;0.30;;
42194;SDS011;27863;49.440;11.102;2023-08-06T10:19:18;0.28;;;0.28;;
42194;SDS011;27863;49.440;11.102;2023-08-06T10:22:19;0.60;;;0.50;;
42194;SDS011;27863;49.440;11.102;2023-08-06T10:25:20;0.30;;;0.30;;
42194;SDS011;27863;49.440;11.102;2023-08-06T10:28:20;0.40;;;0.40;;
42194;SDS011;27863;49.440;11.102;2023-08-06T10:34:58;0.57;;;0.57;;
42194;SDS011;27863;49.440;11.102;2023-08-06T10:37:59;0.20;;;0.20;;
42194;SDS011;27863;49.440;11.102;2023-08-06T10:41:03;0.43;;;0.20;;
42194;SDS011;27863;49.440;11.102;2023-08-06T10:44:05;0.55;;;0.30;;
42194;SDS011;27863;49.440;11.102;2023-08-06T10:47:26;0.20;;;0.20;;
42194;SDS011;27863;49.440;11.102;2023-08-06T10:50:26;0.10;;;0.10;;
42194;SDS011;27863;49.440;11.102;2023-08-06T10:53:27;0.30;;;0.20;;
42194;SDS011;27863;49.440;11.102;2023-08-06T10:56:27;0.28;;;0.28;;
42194;SDS011;27863;49.440;11.102;2023-08-06T10:59:28;0.30;;;0.20;;
42194;SDS011;27863;49.440;11.102;2023-08-06T11:02:29;0.30;;;0.30;;
42194;SDS011;27863;49.440;11.102;2023-08-06T11:05:33;0.20;;;0.20;;
42194;SDS011;27863;49.440;11.102;2023-08-06T11:08:35;0.28;;;0.28;;
42194;SDS011;27863;49.440;11.102;2023-08-06T11:11:39;0.17;;;0.17;;
42194;SDS011;27863;49.440;11.102;2023-08-06T11:14:40;0.40;;;0.38;;
42194;SDS011;27863;49.440;11.102;2023-08-06T11:17:40;1.08;;;0.60;;
42194;SDS011;27863;49.440;11.102;2023-08-06T11:20:42;1.20;;;0.70;;
42194;SDS011;27863;49.440;11.102;2023-08-06T11:23:42;0.70;;;0.70;;
42194;SDS011;27863;49.440;11.102;2023-08-06T11:26:43;0.55;;;0.25;;
42194;SDS011;27863;49.440;11.102;2023-08-06T11:29:44;0.20;;;0.20;;
42194;SDS011;27863;49.440;11.102;2023-08-06T11:32:48;0.50;;;0.20;;
42194;SDS011;27863;49.440;11.102;2023-08-06T11:35:48;0.35;;;0.35;;
42194;SDS011;27863;49.440;11.102;2023-08-06T11:38:49;1.27;;;0.82;;
42194;SDS011;27863;49.440;11.102;2023-08-06T11:41:50;1.38;;;0.40;;
42194;SDS011;27863;49.440;11.102;2023-08-06T11:44:51;1.40;;;0.30;;
42194;SDS011;27863;49.440;11.102;2023-08-06T11:47:52;0.10;;;0.10;;
42194;SDS011;27863;49.440;11.102;2023-08-06T11:50:55;0.77;;;0.35;;
42194;SDS011;27863;49.440;11.102;2023-08-06T11:53:57;0.63;;;0.63;;
42194;SDS011;27863;49.440;11.102;2023-08-06T11:56:58;0.38;;;0.30;;
42194;SDS011;27863;49.440;11.102;2023-08-06T12:03:12;0.30;;;0.30;;
42194;SDS011;27863;49.440;11.102;2023-08-06T12:06:13;0.40;;;0.40;;
42194;SDS011;27863;49.440;11.102;2023-08-06T12:09:13;0.30;;;0.30;;
42194;SDS011;27863;49.440;11.102;2023-08-06T12:12:14;0.47;;;0.30;;
42194;SDS011;27863;49.440;11.102;2023-08-06T12:15:14;0.20;;;0.20;;
42194;SDS011;27863;49.440;11.102;2023-08-06T12:18:15;1.38;;;1.27;;
42194;SDS011;27863;49.440;11.102;2023-08-06T12:21:15;0.52;;;0.38;;
42194;SDS011;27863;49.440;11.102;2023-08-06T12:24:16;0.70;;;0.70;;
42194;SDS011;27863;49.440;11.102;2023-08-06T12:27:16;0.30;;;0.30;;
42194;SDS011;27863;49.440;11.102;2023-08-06T12:30:17;0.65;;;0.40;;
42194;SDS011;27863;49.440;11.102;2023-08-06T12:33:18;1.50;;;0.80;;
42194;SDS011;27863;49.440;11.102;2023-08-06T12:36:19;0.30;;;0.30;;
42194;SDS011;27863;49.440;11.102;2023-08-06T12:39:19;0.20;;;0.20;;
42194;SDS011;27863;49.440;11.102;2023-08-06T12:42:20;0.25;;;0.25;;
42194;SDS011;27863;49.440;11.102;2023-08-06T12:45:20;0.20;;;0.20;;
42194;SDS011;27863;49.440;11.102;2023-08-06T12:48:21;0.32;;;0.32;;
42194;SDS011;27863;49.440;11.102;2023-08-06T12:51:22;0.10;;;0.10;;
42194;SDS011;27863;49.440;11.102;2023-08-06T12:54:28;0.22;;;0.22;;
42194;SDS011;27863;49.440;11.102;2023-08-06T12:57:29;0.15;;;0.15;;
42194;SDS011;27863;49.440;11.102;2023-08-06T13:00:29;0.30;;;0.30;;
42194;SDS011;27863;49.440;11.102;2023-08-06T13:03:30;0.52;;;0.40;;
42194;SDS011;27863;49.440;11.102;2023-08-06T13:06:30;0.28;;;0.28;;
42194;SDS011;27863;49.440;11.102;2023-08-06T13:09:37;2.72;;;0.20;;
42194;SDS011;27863;49.440;11.102;2023-08-06T13:12:38;0.28;;;0.22;;
42194;SDS011;27863;49.440;11.102;2023-08-06T13:15:38;0.40;;;0.40;;
42194;SDS011;27863;49.440;11.102;2023-08-06T13:18:39;0.25;;;0.25;;
42194;SDS011;27863;49.440;11.102;2023-08-06T13:24:40;0.15;;;0.15;;
42194;SDS011;27863;49.440;11.102;2023-08-06T13:27:41;0.28;;;0.22;;
42194;SDS011;27863;49.440;11.102;2023-08-06T13:30:45;0.30;;;0.20;;
42194;SDS011;27863;49.440;11.102;2023-08-06T13:33:45;0.32;;;0.17;;
42194;SDS011;27863;49.440;11.102;2023-08-06T13:36:48;0.30;;;0.30;;
42194;SDS011;27863;49.440;11.102;2023-08-06T13:39:50;0.40;;;0.40;;
42194;SDS011;27863;49.440;11.102;2023-08-06T13:42:50;0.10;;;0.10;;
42194;SDS011;27863;49.440;11.102;2023-08-06T13:45:51;1.08;;;0.10;;
42194;SDS011;27863;49.440;11.102;2023-08-06T13:48:51;0.08;;;0.08;;
42194;SDS011;27863;49.440;11.102;2023-08-06T13:51:51;0.20;;;0.20;;
42194;SDS011;27863;49.440;11.102;2023-08-06T13:54:52;0.20;;;0.20;;
42194;SDS011;27863;49.440;11.102;2023-08-06T13:57:53;0.77;;;0.20;;
42194;SDS011;27863;49.440;11.102;2023-08-06T14:00:53;0.10;;;0.10;;
42194;SDS011;27863;49.440;11.102;2023-08-06T14:03:54;0.10;;;0.10;;
42194;SDS011;27863;49.440;11.102;2023-08-06T14:06:55;0.10;;;0.10;;
42194;SDS011;27863;49.440;11.102;2023-08-06T14:09:55;0.10;;;0.10;;
42194;SDS011;27863;49.440;11.102;2023-08-06T14:12:57;0.20;;;0.20;;
42194;SDS011;27863;49.440;11.102;2023-08-06T14:15:58;0.20;;;0.20;;
42194;SDS011;27863;49.440;11.102;2023-08-06T14:18:58;2.38;;;0.20;;
42194;SDS011;27863;49.440;11.102;2023-08-06T14:21:59;0.08;;;0.08;;
42194;SDS011;27863;49.440;11.102;2023-08-06T14:24:59;0.32;;;0.30;;
42194;SDS011;27863;49.440;11.102;2023-08-06T14:28:00;0.30;;;0.20;;
42194;SDS011;27863;49.440;11.102;2023-08-06T14:31:01;0.20;;;0.20;;
42194;SDS011;27863;49.440;11.102;2023-08-06T14:34:01;0.20;;;0.20;;
42194;SDS011;27863;49.440;11.102;2023-08-06T14:37:02;0.30;;;0.30;;
42194;SDS011;27863;49.440;11.102;2023-08-06T14:40:03;0.57;;;0.17;;
42194;SDS011;27863;49.440;11.102;2023-08-06T14:43:07;0.95;;;0.20;;
42194;SDS011;27863;49.440;11.102;2023-08-06T14:46:07;0.30;;;0.20;;
42194;SDS011;27863;49.440;11.102;2023-08-06T14:49:08;0.50;;;0.50;;
42194;SDS011;27863;49.440;11.102;2023-08-06T14:52:08;0.43;;;0.28;;
42194;SDS011;27863;49.440;11.102;2023-08-06T14:55:10;0.30;;;0.30;;
42194;SDS011;27863;49.440;11.102;2023-08-06T14:58:11;0.50;;;0.50;;
42194;SDS011;27863;49.440;11.102;2023-08-06T15:01:12;0.50;;;0.50;;
42194;SDS011;27863;49.440;11.102;2023-08-06T15:04:12;0.60;;;0.43;;
42194;SDS011;27863;49.440;11.102;2023-08-06T15:07:13;0.40;;;0.40;;
42194;SDS011;27863;49.440;11.102;2023-08-06T15:10:14;1.00;;;0.57;;
42194;SDS011;27863;49.440;11.102;2023-08-06T15:13:14;0.43;;;0.43;;
42194;SDS011;27863;49.440;11.102;2023-08-06T15:16:15;1.15;;;0.98;;
42194;SDS011;27863;49.440;11.102;2023-08-06T15:19:15;1.73;;;0.50;;
42194;SDS011;27863;49.440;11.102;2023-08-06T15:22:16;0.40;;;0.40;;
42194;SDS011;27863;49.440;11.102;2023-08-06T15:25:16;1.38;;;0.45;;
42194;SDS011;27863;49.440;11.102;2023-08-06T15:28:17;1.20;;;0.93;;
42194;SDS011;27863;49.440;11.102;2023-08-06T15:31:21;1.40;;;0.65;;
42194;SDS011;27863;49.440;11.102;2023-08-06T15:34:22;0.90;;;0.60;;
42194;SDS011;27863;49.440;11.102;2023-08-06T15:37:22;1.55;;;0.68;;
42194;SDS011;27863;49.440;11.102;2023-08-06T15:40:23;0.60;;;0.50;;
42194;SDS011;27863;49.440;11.102;2023-08-06T15:43:23;1.25;;;0.50;;
42194;SDS011;27863;49.440;11.102;2023-08-06T15:46:24;0.50;;;0.50;;
42194;SDS011;27863;49.440;11.102;2023-08-06T15:49:24;0.80;;;0.70;;
42194;SDS011;27863;49.440;11.102;2023-08-06T15:52:25;0.28;;;0.28;;
42194;SDS011;27863;49.440;11.102;2023-08-06T15:55:25;0.60;;;0.60;;
42194;SDS011;27863;49.440;11.102;2023-08-06T15:58:26;1.20;;;0.38;;
42194;SDS011;27863;49.440;11.102;2023-08-06T16:01:26;1.98;;;0.50;;
42194;SDS011;27863;49.440;11.102;2023-08-06T16:04:27;0.68;;;0.57;;
42194;SDS011;27863;49.440;11.102;2023-08-06T16:07:31;2.30;;;2.10;;
42194;SDS011;27863;49.440;11.102;2023-08-06T16:10:31;0.98;;;0.70;;
42194;SDS011;27863;49.440;11.102;2023-08-06T16:13:32;1.63;;;0.70;;
42194;SDS011;27863;49.440;11.102;2023-08-06T16:16:33;2.08;;;1.20;;
42194;SDS011;27863;49.440;11.102;2023-08-06T16:19:33;0.63;;;0.60;;
42194;SDS011;27863;49.440;11.102;2023-08-06T16:22:34;3.17;;;0.50;;
42194;SDS011;27863;49.440;11.102;2023-08-06T16:25:38;0.90;;;0.57;;
42194;SDS011;27863;49.440;11.102;2023-08-06T16:28:39;1.10;;;0.90;;
42194;SDS011;27863;49.440;11.102;2023-08-06T16:31:42;0.50;;;0.50;;
42194;SDS011;27863;49.440;11.102;2023-08-06T16:34:42;0.80;;;0.50;;
42194;SDS011;27863;49.440;11.102;2023-08-06T16:37:45;0.50;;;0.50;;
42194;SDS011;27863;49.440;11.102;2023-08-06T16:40:53;0.90;;;0.57;;
42194;SDS011;27863;49.440;11.102;2023-08-06T16:43:54;1.27;;;0.63;;
42194;SDS011;27863;49.440;11.102;2023-08-06T16:46:55;0.60;;;0.60;;
42194;SDS011;27863;49.440;11.102;2023-08-06T16:49:56;1.02;;;0.75;;
42194;SDS011;27863;49.440;11.102;2023-08-06T16:52:56;0.60;;;0.55;;
42194;SDS011;27863;49.440;11.102;2023-08-06T16:55:57;0.75;;;0.57;;
42194;SDS011;27863;49.440;11.102;2023-08-06T16:58:59;0.60;;;0.60;;
42194;SDS011;27863;49.440;11.102;2023-08-06T17:02:00;1.42;;;1.00;;
42194;SDS011;27863;49.440;11.102;2023-08-06T17:05:01;0.80;;;0.52;;
42194;SDS011;27863;49.440;11.102;2023-08-06T17:08:01;0.60;;;0.60;;
42194;SDS011;27863;49.440;11.102;2023-08-06T17:11:01;0.55;;;0.40;;
42194;SDS011;27863;49.440;11.102;2023-08-06T17:14:02;1.00;;;0.40;;
42194;SDS011;27863;49.440;11.102;2023-08-06T17:17:03;0.40;;;0.40;;
42194;SDS011;27863;49.440;11.102;2023-08-06T17:20:04;0.30;;;0.30;;
42194;SDS011;27863;49.440;11.102;2023-08-06T17:23:05;0.60;;;0.38;;
42194;SDS011;27863;49.440;11.102;2023-08-06T17:26:05;0.40;;;0.40;;
42194;SDS011;27863;49.440;11.102;2023-08-06T17:29:07;0.50;;;0.50;;
42194;SDS011;27863;49.440;11.102;2023-08-06T17:32:07;0.70;;;0.55;;
42194;SDS011;27863;49.440;11.102;2023-08-06T17:35:08;0.65;;;0.45;;
42194;SDS011;27863;49.440;11.102;2023-08-06T17:38:13;1.50;;;1.40;;
42194;SDS011;27863;49.440;11.102;2023-08-06T17:41:14;3.10;;;2.88;;
42194;SDS011;27863;49.440;11.102;2023-08-06T17:44:15;0.50;;;0.50;;
42194;SDS011;27863;49.440;11.102;2023-08-06T17:47:15;0.30;;;0.30;;
42194;SDS011;27863;49.440;11.102;2023-08-06T17:50:17;0.60;;;0.40;;
42194;SDS011;27863;49.440;11.102;2023-08-06T17:53:20;0.43;;;0.40;;
42194;SDS011;27863;49.440;11.102;2023-08-06T17:56:20;0.40;;;0.40;;
42194;SDS011;27863;49.440;11.102;2023-08-06T17:59:21;2.65;;;2.25;;
42194;SDS011;27863;49.440;11.102;2023-08-06T18:02:21;0.60;;;0.52;;
42194;SDS011;27863;49.440;11.102;2023-08-06T18:05:22;0.82;;;0.30;;
42194;SDS011;27863;49.440;11.102;2023-08-06T18:08:23;0.40;;;0.40;;
42194;SDS011;27863;49.440;11.102;2023-08-06T18:11:24;0.20;;;0.20;;
42194;SDS011;27863;49.440;11.102;2023-08-06T18:14:24;0.85;;;0.38;;